Time;durP1;ratioP1;P1;durP2;ratioP2;P2;SDS_P1;SDS_P2;PMS_P1;PMS_P2;Temp;Humidity;BMP_temperature;BMP_pressure;BME280_temperature;BME280_humidity;BME280_pressure;Samples;Min_cycle;Max_cycle;Signal;HPM_P1;HPM_P2
2022/04/07 00:00:48;;;;;;;;;3.50;2.00;;;;;11.93;66.22;99408.44;5055525;28;45906;-46
2022/04/07 00:03:14;;;;;;;;;1.50;1.00;;;;;11.95;66.49;99403.50;5038263;28;45323;-47
2022/04/07 00:05:40;;;;;;;;;1.00;1.00;;;;;11.95;66.42;99408.19;5057058;28;45374;-47
2022/04/07 00:08:05;;;;;;;;;1.00;1.00;;;;;11.91;66.74;99389.44;5056761;28;45299;-47
2022/04/07 00:10:32;;;;;;;;;1.00;1.00;;;;;11.99;66.13;99388.16;5038541;28;46471;-45
2022/04/07 00:12:57;;;;;;;;;1.20;0.20;;;;;11.95;66.24;99370.50;5056303;28;45491;-45
2022/04/07 00:15:23;;;;;;;;;0.00;0.00;;;;;11.97;66.29;99371.09;5056794;28;45384;-46
2022/04/07 00:17:49;;;;;;;;;0.00;0.00;;;;;11.99;66.14;99366.16;5072175;28;45397;-47
2022/04/07 00:20:14;;;;;;;;;3.25;1.00;;;;;11.96;65.92;99366.69;5038479;28;46107;-46
2022/04/07 00:22:41;;;;;;;;;0.50;0.50;;;;;11.37;65.86;99282.91;5056147;28;45403;-52
2022/04/07 00:25:06;;;;;;;;;2.80;1.00;;;;;11.67;66.07;99322.88;5054953;28;45389;-51
2022/04/07 00:27:32;;;;;;;;;2.00;1.25;;;;;11.99;65.92;99371.66;5056612;28;45189;-48
2022/04/07 00:29:57;;;;;;;;;0.00;0.00;;;;;11.97;65.63;99360.09;5056237;28;46071;-47
2022/04/07 00:32:23;;;;;;;;;1.50;1.50;;;;;11.97;65.76;99362.84;5056265;28;45565;-53
2022/04/07 00:34:54;;;;;;;;;1.75;1.75;;;;;11.96;65.95;99355.69;5055929;28;45764;-47
2022/04/07 00:37:22;;;;;;;;;1.00;1.00;;;;;11.98;65.67;99358.16;5056343;28;45413;-47
2022/04/07 00:39:49;;;;;;;;;1.00;1.00;;;;;11.78;65.65;99323.81;5054315;28;48383;-47
2022/04/07 00:42:15;;;;;;;;;1.00;1.00;;;;;12.00;65.90;99351.31;5071402;28;45441;-47
2022/04/07 00:44:41;;;;;;;;;1.00;1.00;;;;;12.03;65.74;99333.50;5038204;28;45438;-47
2022/04/07 00:47:07;;;;;;;;;1.00;1.00;;;;;12.03;65.33;99328.88;5056131;28;45417;-47
2022/04/07 00:49:33;;;;;;;;;0.40;0.40;;;;;12.00;65.50;99328.53;5055837;28;45436;-46
2022/04/07 00:51:59;;;;;;;;;0.75;0.75;;;;;12.00;65.41;99312.03;5037825;28;45385;-46
2022/04/07 00:54:24;;;;;;;;;0.75;0.75;;;;;11.99;65.38;99300.19;5056125;28;45416;-46
2022/04/07 00:56:50;;;;;;;;;1.00;1.00;;;;;12.01;65.22;99295.25;5038241;28;45466;-45
2022/04/07 00:59:16;;;;;;;;;1.00;1.00;;;;;12.02;65.15;99301.59;5055718;28;46189;-44
2022/04/07 01:01:42;;;;;;;;;0.80;0.80;;;;;11.88;65.64;99268.13;5032613;28;45511;-44
2022/04/07 01:04:08;;;;;;;;;0.60;0.60;;;;;12.00;65.20;99290.84;5056013;28;45394;-46
2022/04/07 01:06:33;;;;;;;;;0.00;0.00;;;;;12.04;65.39;99264.53;5056455;28;45520;-47
2022/04/07 01:08:59;;;;;;;;;1.00;1.00;;;;;11.83;65.22;99229.59;5037398;28;45432;-46
2022/04/07 01:11:26;;;;;;;;;1.00;0.00;;;;;12.05;65.04;99263.44;5037910;28;45366;-48
2022/04/07 01:13:51;;;;;;;;;1.80;1.80;;;;;11.80;64.76;99228.22;5037852;28;45271;-48
2022/04/07 01:16:18;;;;;;;;;2.00;2.00;;;;;11.88;65.24;99225.00;5056064;28;45376;-48
2022/04/07 01:18:46;;;;;;;;;1.00;1.00;;;;;11.74;65.20;99190.75;5037458;28;46658;-47
2022/04/07 01:21:14;;;;;;;;;1.60;1.00;;;;;11.83;65.30;99215.84;5055577;28;45260;-47
2022/04/07 01:23:39;;;;;;;;;0.60;0.40;;;;;12.01;65.89;99237.50;5037873;28;45335;-47
2022/04/07 01:26:05;;;;;;;;;1.00;1.00;;;;;11.79;65.59;99224.63;5071770;28;45656;-47
2022/04/07 01:28:32;;;;;;;;;2.25;1.00;;;;;11.97;65.97;99249.28;5037565;28;46046;-46
2022/04/07 01:30:57;;;;;;;;;1.40;1.00;;;;;11.83;66.11;99224.09;5055865;28;45362;-47
2022/04/07 01:33:23;;;;;;;;;1.00;1.00;;;;;11.96;65.82;99255.88;5055675;28;45410;-48
2022/04/07 01:35:49;;;;;;;;;1.00;0.00;;;;;11.77;65.98;99206.72;5055649;28;45369;-46
2022/04/07 01:38:16;;;;;;;;;1.00;1.00;;;;;11.95;65.92;99230.28;5055423;28;45510;-49
2022/04/07 01:40:41;;;;;;;;;3.00;1.40;;;;;11.98;65.84;99229.78;5055013;28;45308;-47
2022/04/07 01:43:07;;;;;;;;;1.25;0.50;;;;;11.93;65.67;99224.22;5055641;28;45436;-48
2022/04/07 01:45:33;;;;;;;;;2.50;2.50;;;;;11.86;66.09;99229.09;5038429;28;45364;-47
2022/04/07 01:47:59;;;;;;;;;1.75;1.75;;;;;11.93;66.18;99230.56;5053972;28;45546;-44
2022/04/07 01:50:24;;;;;;;;;2.00;0.80;;;;;11.93;66.15;99218.72;5070709;28;45260;-49
2022/04/07 01:52:50;;;;;;;;;0.00;0.00;;;;;11.81;66.49;99205.13;5036873;28;45402;-47
2022/04/07 01:55:16;;;;;;;;;3.25;1.75;;;;;11.96;67.13;99233.88;5054364;28;45558;-49
2022/04/07 01:57:41;;;;;;;;;1.25;0.75;;;;;11.95;67.30;99221.22;5037114;28;46458;-47
2022/04/07 02:00:07;;;;;;;;;0.25;0.00;;;;;11.95;68.61;99233.03;5037200;28;45385;-46
2022/04/07 02:02:33;;;;;;;;;0.80;0.80;;;;;11.79;68.93;99202.63;5055400;28;45434;-46
2022/04/07 02:05:00;;;;;;;;;0.00;0.00;;;;;11.90;68.92;99220.06;5046181;28;45535;-45
2022/04/07 02:07:29;;;;;;;;;3.60;0.40;;;;;11.89;69.52;99217.56;5052493;28;47484;-45
2022/04/07 02:09:55;;;;;;;;;3.60;1.00;;;;;11.89;69.53;99225.81;5049629;28;45399;-47
2022/04/07 02:12:20;;;;;;;;;0.50;0.50;;;;;11.87;69.29;99214.25;5054018;28;45326;-47
2022/04/07 02:14:49;;;;;;;;;1.00;1.00;;;;;11.87;69.15;99214.25;5035337;28;45648;-47
2022/04/07 02:17:20;;;;;;;;;0.00;0.00;;;;;11.77;69.17;99180.06;5053781;28;46128;-48
2022/04/07 02:19:49;;;;;;;;;1.80;1.00;;;;;11.69;69.12;99176.97;5052593;28;45492;-48
2022/04/07 02:22:14;;;;;;;;;1.20;1.00;;;;;11.43;69.72;99136.28;5070178;28;45429;-47
2022/04/07 02:24:41;;;;;;;;;3.00;2.00;;;;;11.83;69.73;99186.44;5056317;28;45445;-48
2022/04/07 02:27:08;;;;;;;;;2.00;2.00;;;;;11.82;69.45;99181.19;5040486;28;45417;-46
2022/04/07 02:29:34;;;;;;;;;1.60;1.00;;;;;11.66;69.25;99150.81;5058373;28;45295;-46
2022/04/07 02:31:59;;;;;;;;;1.20;1.00;;;;;11.83;69.47;99169.13;5073803;28;45423;-47
2022/04/07 02:34:25;;;;;;;;;1.00;0.00;;;;;11.82;69.89;99159.22;5058318;28;45420;-48
2022/04/07 02:36:50;;;;;;;;;3.00;1.25;;;;;11.78;70.48;99148.75;5057813;28;45622;-47
2022/04/07 02:39:16;;;;;;;;;1.00;1.00;;;;;11.77;71.10;99136.09;5057791;28;45450;-47
2022/04/07 02:41:41;;;;;;;;;0.75;0.75;;;;;11.78;71.25;99132.25;5058239;28;45377;-46
2022/04/07 02:44:07;;;;;;;;;2.00;1.00;;;;;11.79;71.36;99136.66;5058217;28;45430;-49
2022/04/07 02:46:32;;;;;;;;;1.50;1.00;;;;;11.74;71.11;99122.06;5058164;28;46881;-48
2022/04/07 02:48:58;;;;;;;;;0.25;0.25;;;;;11.77;71.52;99125.09;5039665;28;45288;-46
2022/04/07 02:51:24;;;;;;;;;0.00;0.00;;;;;11.82;71.63;99116.06;5057990;28;45353;-47
2022/04/07 02:53:51;;;;;;;;;1.00;1.00;;;;;11.84;71.77;99110.31;5039807;28;45624;-46
2022/04/07 02:56:16;;;;;;;;;3.00;0.00;;;;;11.83;71.72;99100.38;5057718;28;45341;-47
2022/04/07 02:58:42;;;;;;;;;1.50;1.00;;;;;11.82;71.75;99090.50;5057639;28;45351;-47
2022/04/07 03:01:14;;;;;;;;;2.00;0.50;;;;;11.83;71.95;99090.25;5057716;28;45359;-46
2022/04/07 03:03:40;;;;;;;;;3.80;1.00;;;;;11.84;71.55;99089.16;5039460;28;45524;-46
2022/04/07 03:06:05;;;;;;;;;2.00;0.00;;;;;11.83;71.41;99076.50;5057701;28;45738;-47
2022/04/07 03:08:32;;;;;;;;;3.75;2.00;;;;;11.83;71.82;99078.41;5039041;28;45375;-48
2022/04/07 03:10:58;;;;;;;;;2.00;2.00;;;;;11.84;71.73;99066.34;5057407;28;45553;-47
2022/04/07 03:13:24;;;;;;;;;2.00;0.25;;;;;11.85;71.45;99068.81;5057550;28;45272;-48
2022/04/07 03:15:49;;;;;;;;;1.25;1.25;;;;;11.84;71.75;99044.34;5057094;28;45912;-46
2022/04/07 03:18:15;;;;;;;;;3.00;2.00;;;;;11.85;71.72;99059.75;5057375;28;45347;-47
2022/04/07 03:20:40;;;;;;;;;2.25;2.00;;;;;11.86;71.81;99045.75;5057451;28;45375;-45
2022/04/07 03:23:06;;;;;;;;;0.00;0.00;;;;;11.85;72.12;99048.75;5057671;28;45639;-45
2022/04/07 03:25:31;;;;;;;;;2.75;2.75;;;;;11.80;72.60;99035.81;4981564;27;45622;-48
2022/04/07 03:27:57;;;;;;;;;2.00;2.00;;;;;11.82;72.82;99019.88;5057407;28;45955;-49
2022/04/07 03:30:22;;;;;;;;;1.25;1.00;;;;;11.61;72.81;98975.72;5057123;28;45808;-46
2022/04/07 03:32:48;;;;;;;;;2.50;1.75;;;;;11.86;72.99;99010.00;5057460;28;45809;-45
2022/04/07 03:35:13;;;;;;;;;1.50;1.00;;;;;11.84;72.56;99006.69;5055569;28;45669;-49
2022/04/07 03:37:39;;;;;;;;;1.25;1.25;;;;;11.80;72.95;98989.06;5055395;28;45549;-47
2022/04/07 03:40:05;;;;;;;;;1.00;1.00;;;;;11.82;72.76;98980.53;5056892;28;45350;-45
2022/04/07 03:42:31;;;;;;;;;2.80;1.40;;;;;11.85;72.69;98971.78;5057099;28;45361;-46
2022/04/07 03:44:56;;;;;;;;;2.25;2.25;;;;;11.87;72.73;98958.59;5056706;28;45334;-45
2022/04/07 03:47:22;;;;;;;;;1.75;1.75;;;;;11.87;72.73;98950.34;5038960;28;45440;-44
2022/04/07 03:49:48;;;;;;;;;1.00;1.00;;;;;11.89;72.88;98935.25;5056737;28;45303;-45
2022/04/07 03:52:15;;;;;;;;;2.00;2.00;;;;;11.89;73.03;98932.50;5056928;28;45366;-45
2022/04/07 03:54:41;;;;;;;;;1.80;1.80;;;;;11.27;72.90;98821.34;5056504;28;45371;-45
2022/04/07 03:57:06;;;;;;;;;1.20;1.20;;;;;11.84;73.73;98913.22;5038496;28;45438;-45
2022/04/07 03:59:37;;;;;;;;;2.75;1.25;;;;;11.84;72.99;98915.97;5056697;28;45470;-47
2022/04/07 04:02:06;;;;;;;;;2.40;1.60;;;;;11.86;73.36;98900.06;5056736;28;45549;-46
2022/04/07 04:04:32;;;;;;;;;1.00;1.00;;;;;11.86;73.18;98901.97;5056760;28;46938;-47
2022/04/07 04:06:57;;;;;;;;;0.50;0.50;;;;;11.90;73.12;98881.91;5055292;28;45473;-49
2022/04/07 04:09:23;;;;;;;;;1.00;1.00;;;;;11.89;73.11;98905.00;5038799;28;45469;-50
2022/04/07 04:11:49;;;;;;;;;1.00;1.00;;;;;11.92;72.88;98907.22;5056476;28;45338;-46
2022/04/07 04:14:14;;;;;;;;;1.50;1.00;;;;;11.95;72.80;98888.56;5056247;28;45719;-46
2022/04/07 04:16:41;;;;;;;;;1.00;1.00;;;;;11.90;72.48;98870.13;5056250;28;45311;-48
2022/04/07 04:19:07;;;;;;;;;2.00;0.00;;;;;11.98;72.62;98877.00;5056422;28;45236;-47
2022/04/07 04:21:32;;;;;;;;;2.00;0.75;;;;;11.96;72.67;98869.06;5057140;28;45254;-46
2022/04/07 04:23:58;;;;;;;;;1.00;1.00;;;;;11.80;72.62;98840.66;5038145;28;46143;-46
2022/04/07 04:26:23;;;;;;;;;1.00;1.00;;;;;11.93;72.52;98861.31;5055038;28;45413;-49
2022/04/07 04:28:49;;;;;;;;;1.50;1.50;;;;;11.98;73.02;98864.09;5038136;28;45320;-49
2022/04/07 04:31:14;;;;;;;;;2.75;2.25;;;;;12.00;72.86;98866.59;5056639;28;45456;-48
2022/04/07 04:33:40;;;;;;;;;3.00;3.00;;;;;11.77;73.13;98821.94;5056211;28;45361;-46
2022/04/07 04:36:05;;;;;;;;;6.00;3.00;;;;;12.04;73.06;98874.06;5056203;28;45318;-48
2022/04/07 04:38:31;;;;;;;;;4.50;3.00;;;;;11.88;72.96;98831.06;5056088;28;45585;-48
2022/04/07 04:40:57;;;;;;;;;5.00;2.75;;;;;12.03;73.10;98850.41;5056075;28;45532;-49
2022/04/07 04:43:22;;;;;;;;;2.00;2.00;;;;;12.02;72.88;98856.94;5056078;28;45992;-46
2022/04/07 04:45:48;;;;;;;;;2.75;2.75;;;;;11.62;72.79;98784.19;5055535;28;45540;-47
2022/04/07 04:48:13;;;;;;;;;4.00;2.50;;;;;11.96;72.95;98830.56;5056296;28;45446;-47
2022/04/07 04:50:39;;;;;;;;;2.00;2.00;;;;;12.12;72.64;98841.66;5056046;28;45420;-47
2022/04/07 04:53:04;;;;;;;;;4.00;2.00;;;;;12.13;72.65;98838.63;5055665;28;46303;-49
2022/04/07 04:55:30;;;;;;;;;3.25;1.75;;;;;12.07;72.30;98831.47;5037534;28;45396;-46
2022/04/07 04:57:55;;;;;;;;;2.25;2.25;;;;;12.13;72.61;98835.03;5054627;28;45418;-45
2022/04/07 05:00:21;;;;;;;;;1.50;1.50;;;;;12.15;72.86;98839.19;5056397;28;45342;-46
2022/04/07 05:02:48;;;;;;;;;3.40;3.00;;;;;12.16;72.72;98826.25;5055530;28;45849;-46
2022/04/07 05:05:13;;;;;;;;;2.25;2.25;;;;;12.11;72.49;98829.00;5055690;28;45343;-46
2022/04/07 05:07:39;;;;;;;;;4.00;4.00;;;;;12.17;72.37;98834.22;5055754;28;45391;-45
2022/04/07 05:10:05;;;;;;;;;2.75;2.00;;;;;12.17;72.37;98817.72;5055925;28;45320;-48
2022/04/07 05:12:30;;;;;;;;;2.50;1.00;;;;;12.12;72.33;98819.66;5037426;28;46555;-47
2022/04/07 05:14:56;;;;;;;;;1.50;1.50;;;;;12.17;72.44;98819.66;5054312;28;45361;-47
2022/04/07 05:17:22;;;;;;;;;2.00;2.00;;;;;12.18;72.53;98811.13;5055529;28;45516;-46
2022/04/07 05:19:48;;;;;;;;;2.00;2.00;;;;;12.18;72.60;98758.88;5055660;28;45450;-47
2022/04/07 05:22:14;;;;;;;;;1.80;1.00;;;;;12.20;72.29;98814.47;5055579;28;45762;-47
2022/04/07 05:24:39;;;;;;;;;4.75;0.75;;;;;12.19;72.30;98796.31;5055255;28;45488;-47
2022/04/07 05:27:05;;;;;;;;;1.50;1.50;;;;;12.24;71.77;98803.75;5055626;28;45312;-46
2022/04/07 05:29:30;;;;;;;;;1.00;1.00;;;;;12.25;71.88;98801.78;5054072;28;45464;-46
2022/04/07 05:31:56;;;;;;;;;1.00;1.00;;;;;12.12;71.80;98759.16;5055231;28;46696;-47
2022/04/07 05:34:21;;;;;;;;;2.00;2.00;;;;;12.27;71.67;98777.63;5055429;28;45282;-46
2022/04/07 05:36:47;;;;;;;;;2.75;1.50;;;;;12.30;71.37;98771.56;5037312;28;45451;-47
2022/04/07 05:39:15;;;;;;;;;1.00;1.00;;;;;12.27;71.09;98783.94;5055461;28;45303;-48
2022/04/07 05:41:41;;;;;;;;;2.60;1.00;;;;;12.28;70.87;98768.25;5055116;28;47488;-48
2022/04/07 05:44:06;;;;;;;;;2.00;2.00;;;;;12.25;70.40;98752.28;5055095;28;45462;-50
2022/04/07 05:46:32;;;;;;;;;1.00;1.00;;;;;12.37;70.69;98766.63;5055322;28;45767;-46
2022/04/07 05:48:57;;;;;;;;;0.00;0.00;;;;;12.16;70.57;98724.50;5055353;28;45410;-47
2022/04/07 05:51:23;;;;;;;;;1.00;1.00;;;;;12.34;70.70;98750.69;5053539;28;46081;-48
2022/04/07 05:53:48;;;;;;;;;2.00;2.00;;;;;12.37;70.93;98750.13;5036708;28;45358;-46
2022/04/07 05:56:14;;;;;;;;;3.00;1.00;;;;;12.38;70.87;98768.28;5055148;28;45413;-46
2022/04/07 05:58:39;;;;;;;;;1.50;0.75;;;;;12.40;70.92;98766.09;5056405;28;45291;-47
2022/04/07 06:01:05;;;;;;;;;1.25;1.00;;;;;12.24;70.61;98734.97;5058297;28;45401;-49
2022/04/07 06:03:34;;;;;;;;;3.00;2.00;;;;;12.39;70.66;98745.16;5058518;28;45498;-47
2022/04/07 06:05:59;;;;;;;;;2.00;1.60;;;;;12.43;70.14;98751.78;5073566;28;45331;-48
2022/04/07 06:08:25;;;;;;;;;2.75;2.25;;;;;12.46;69.86;98728.41;5058915;28;45327;-46
2022/04/07 06:10:50;;;;;;;;;2.25;1.25;;;;;12.45;69.99;98762.50;5058330;28;45386;-47
2022/04/07 06:13:16;;;;;;;;;1.00;1.00;;;;;12.46;69.85;98742.16;5058409;28;45326;-46
2022/04/07 06:15:42;;;;;;;;;0.25;0.25;;;;;12.49;69.60;98758.09;5058326;28;45841;-47
2022/04/07 06:18:07;;;;;;;;;0.25;0.25;;;;;12.53;69.60;98752.91;5040356;28;45365;-48
2022/04/07 06:20:33;;;;;;;;;2.75;1.00;;;;;12.53;69.56;98741.91;5058135;28;46059;-47
2022/04/07 06:23:00;;;;;;;;;1.00;1.00;;;;;12.53;69.54;98761.97;5058106;28;45466;-46
2022/04/07 06:25:26;;;;;;;;;1.00;0.80;;;;;12.54;69.75;98757.31;5057029;28;45386;-45
2022/04/07 06:27:51;;;;;;;;;2.40;1.40;;;;;12.35;69.16;98719.31;5058503;28;45359;-45
2022/04/07 06:30:18;;;;;;;;;2.75;2.50;;;;;12.53;69.38;98748.22;5056590;28;45405;-46
2022/04/07 06:32:44;;;;;;;;;1.00;1.00;;;;;12.56;69.39;98730.31;5039924;28;45328;-46
2022/04/07 06:35:10;;;;;;;;;2.40;1.20;;;;;12.55;69.31;98740.50;5058025;28;45321;-46
2022/04/07 06:37:48;;;;;;;;;0.80;0.80;;;;;12.31;69.49;98704.44;5058100;28;45639;-47
2022/04/07 06:40:14;;;;;;;;;2.40;2.40;;;;;12.59;69.50;98740.78;5057558;28;45830;-48
2022/04/07 06:42:39;;;;;;;;;0.75;0.75;;;;;12.57;69.71;98738.31;5057463;28;45422;-45
2022/04/07 06:45:05;;;;;;;;;1.25;1.25;;;;;12.59;69.94;98727.00;5039912;28;45444;-45
2022/04/07 06:47:38;;;;;;;;;2.00;2.00;;;;;12.42;70.06;98699.78;5058374;28;45489;-48
2022/04/07 06:50:06;;;;;;;;;2.80;2.80;;;;;12.64;70.21;98713.25;5056009;28;47876;-46
2022/04/07 06:52:31;;;;;;;;;1.00;1.00;;;;;12.57;70.40;98701.72;5057796;28;45338;-49
2022/04/07 06:54:57;;;;;;;;;1.00;0.00;;;;;12.61;70.38;98711.88;5057536;28;45378;-47
2022/04/07 06:57:22;;;;;;;;;0.00;0.00;;;;;12.72;70.16;98720.16;5039857;28;45288;-47
2022/04/07 06:59:48;;;;;;;;;3.50;2.50;;;;;12.71;70.35;98724.81;5057285;28;46019;-47
2022/04/07 07:02:14;;;;;;;;;1.00;1.00;;;;;12.71;70.18;98727.56;5056205;28;45430;-45
2022/04/07 07:04:39;;;;;;;;;2.25;0.00;;;;;12.68;70.61;98719.03;5057955;28;45603;-46
2022/04/07 07:07:05;;;;;;;;;1.25;1.25;;;;;12.45;70.68;98719.31;5057862;28;45361;-48
2022/04/07 07:09:31;;;;;;;;;3.00;1.00;;;;;12.71;70.70;98697.28;5057198;28;46086;-48
2022/04/07 07:11:56;;;;;;;;;1.00;1.00;;;;;12.76;70.11;98702.00;5057450;28;45443;-47
2022/04/07 07:14:22;;;;;;;;;2.75;0.25;;;;;12.77;70.76;98705.56;5057586;28;45481;-47
2022/04/07 07:16:48;;;;;;;;;2.75;0.75;;;;;12.77;70.56;98702.81;5057448;28;45614;-45
2022/04/07 07:19:15;;;;;;;;;0.00;0.00;;;;;12.81;70.17;98718.47;5057448;28;45837;-47
2022/04/07 07:21:41;;;;;;;;;0.00;0.00;;;;;12.82;70.81;98703.59;5039284;28;45869;-45
2022/04/07 07:24:06;;;;;;;;;0.00;0.00;;;;;12.67;70.58;98654.09;5057613;28;45362;-50
2022/04/07 07:26:32;;;;;;;;;4.00;2.00;;;;;12.87;70.33;98700.06;4974055;27;45575;-48
2022/04/07 07:28:58;;;;;;;;;2.40;2.40;;;;;12.93;70.67;98700.84;5071050;28;47115;-49
2022/04/07 07:31:24;;;;;;;;;3.00;1.00;;;;;12.89;71.29;98695.09;5057235;28;45338;-46
2022/04/07 07:33:49;;;;;;;;;0.00;0.00;;;;;12.85;71.49;98716.00;5056961;28;45611;-48
2022/04/07 07:36:15;;;;;;;;;0.00;0.00;;;;;12.84;71.31;98714.34;5057518;28;45494;-48
2022/04/07 07:38:40;;;;;;;;;1.00;1.00;;;;;12.82;71.29;98711.06;5057062;28;45406;-49
2022/04/07 07:41:06;;;;;;;;;1.00;0.75;;;;;12.80;71.34;98696.75;5055508;28;45279;-47
2022/04/07 07:43:32;;;;;;;;;0.00;0.00;;;;;12.86;71.62;98688.19;5057220;28;45346;-48
2022/04/07 07:45:57;;;;;;;;;0.00;0.00;;;;;12.84;71.11;98679.41;5032464;27;45603;-46
2022/04/07 07:48:27;;;;;;;;;0.00;0.00;;;;;12.86;70.87;98662.63;5029093;28;47354;-46
2022/04/07 07:50:52;;;;;;;;;2.20;0.00;;;;;13.05;70.37;98670.25;5038553;28;45477;-48
2022/04/07 07:53:18;;;;;;;;;0.00;0.00;;;;;13.14;70.27;98668.59;5055600;28;45374;-46
2022/04/07 07:55:43;;;;;;;;;1.00;1.00;;;;;13.19;70.34;98670.50;5057167;28;45668;-46
2022/04/07 07:58:09;;;;;;;;;0.00;0.00;;;;;13.22;71.14;98680.94;5056451;28;46074;-46
2022/04/07 08:00:34;;;;;;;;;0.00;0.00;;;;;13.18;70.62;98663.34;5039144;28;45433;-47
2022/04/07 08:03:00;;;;;;;;;0.00;0.00;;;;;13.29;70.86;98676.81;5056893;28;45318;-46
2022/04/07 08:05:25;;;;;;;;;0.50;0.00;;;;;13.30;70.44;98685.91;5055266;28;45711;-47
2022/04/07 08:07:51;;;;;;;;;0.00;0.00;;;;;13.27;70.52;98678.19;5056381;28;45408;-46
2022/04/07 08:10:16;;;;;;;;;1.00;0.00;;;;;13.25;70.65;98666.63;5056609;28;45410;-49
2022/04/07 08:12:42;;;;;;;;;0.00;0.00;;;;;13.27;71.18;98667.16;5056386;28;45524;-47
2022/04/07 08:15:08;;;;;;;;;0.75;0.75;;;;;13.27;71.70;98678.19;5056361;28;45518;-47
2022/04/07 08:17:35;;;;;;;;;0.20;0.00;;;;;13.28;71.66;98663.31;5054634;28;46964;-47
2022/04/07 08:20:02;;;;;;;;;0.25;0.25;;;;;13.38;71.45;98668.78;5056258;28;45419;-50
2022/04/07 08:22:27;;;;;;;;;0.00;0.00;;;;;13.46;71.16;98669.34;5038000;28;45239;-46
2022/04/07 08:24:55;;;;;;;;;0.00;0.00;;;;;13.48;70.89;98647.81;5038777;28;45528;-48
2022/04/07 08:27:21;;;;;;;;;0.00;0.00;;;;;13.41;70.16;98631.59;5055054;28;46811;-47
2022/04/07 08:29:47;;;;;;;;;0.00;0.00;;;;;13.72;69.95;98660.94;5055354;28;45414;-48
2022/04/07 08:32:12;;;;;;;;;2.00;1.00;;;;;13.78;70.13;98668.09;5056218;28;45402;-47
2022/04/07 08:34:38;;;;;;;;;0.00;0.00;;;;;13.87;69.86;98662.81;5056630;28;45485;-52
2022/04/07 08:37:04;;;;;;;;;2.00;0.00;;;;;13.94;69.35;98655.03;5055959;28;45458;-48
2022/04/07 08:39:29;;;;;;;;;0.00;0.00;;;;;14.02;69.29;98648.91;5037649;28;45357;-48
2022/04/07 08:41:55;;;;;;;;;0.00;0.00;;;;;13.92;68.69;98638.78;5055101;28;45488;-48
2022/04/07 08:44:22;;;;;;;;;0.75;0.75;;;;;14.20;68.58;98650.16;5055400;28;45497;-49
2022/04/07 08:46:53;;;;;;;;;0.00;0.00;;;;;14.28;68.41;98662.53;5054236;28;47137;-50
2022/04/07 08:49:22;;;;;;;;;1.00;0.00;;;;;14.32;68.00;98647.06;5041064;27;45485;-49
2022/04/07 08:51:49;;;;;;;;;1.00;0.00;;;;;14.41;67.62;98660.22;5052943;28;45650;-48
2022/04/07 08:54:14;;;;;;;;;0.00;0.00;;;;;14.42;66.84;98665.47;5036576;28;45567;-48
2022/04/07 08:56:40;;;;;;;;;0.00;0.00;;;;;14.52;67.09;98661.78;5053495;28;46697;-46
2022/04/07 08:59:06;;;;;;;;;2.00;0.00;;;;;14.60;66.94;98671.38;5036685;28;45434;-44
2022/04/07 09:01:31;;;;;;;;;0.00;0.00;;;;;14.61;66.87;98657.28;5035619;28;45329;-48
2022/04/07 09:03:56;;;;;;;;;0.00;0.00;;;;;14.68;66.66;98656.13;5054722;28;45405;-50
2022/04/07 09:06:23;;;;;;;;;1.25;1.00;;;;;14.80;66.34;98670.41;5054893;28;46194;-48
2022/04/07 09:08:49;;;;;;;;;0.60;0.00;;;;;14.87;66.30;98661.75;5023467;28;45654;-48
2022/04/07 09:11:16;;;;;;;;;0.00;0.00;;;;;14.80;65.66;98664.03;5026845;28;45707;-50
2022/04/07 09:13:44;;;;;;;;;0.00;0.00;;;;;14.74;65.79;98636.47;4937094;28;45765;-48
2022/04/07 09:16:12;;;;;;;;;0.00;0.00;;;;;14.93;65.61;98646.78;5029780;28;45489;-50
2022/04/07 09:18:42;;;;;;;;;0.00;0.00;;;;;14.86;66.00;98615.94;5040755;28;45731;-52
2022/04/07 09:21:08;;;;;;;;;0.00;0.00;;;;;14.91;65.83;98660.88;5047346;28;45779;-51
2022/04/07 09:23:38;;;;;;;;;0.00;0.00;;;;;14.81;65.71;98630.63;5033942;28;45784;-53
2022/04/07 09:26:03;;;;;;;;;0.00;0.00;;;;;14.94;65.88;98670.53;5028245;28;46585;-47
2022/04/07 09:28:29;;;;;;;;;0.00;0.00;;;;;14.87;65.46;98629.44;5010255;28;45427;-50
2022/04/07 09:30:58;;;;;;;;;0.00;0.00;;;;;15.07;65.12;98654.38;5033042;28;45608;-50
2022/04/07 09:33:25;;;;;;;;;0.00;0.00;;;;;15.11;65.33;98647.16;5026810;28;45753;-52
2022/04/07 09:36:05;;;;;;;;;0.80;0.00;;;;;14.96;64.76;98617.75;5018475;28;45936;-48
2022/04/07 09:38:31;;;;;;;;;0.00;0.00;;;;;15.13;64.82;98664.25;5005149;28;45788;-48
2022/04/07 09:41:23;;;;;;;;;0.00;0.00;;;;;15.11;64.35;98674.78;5009636;28;45508;-47
2022/04/07 09:43:58;;;;;;;;;0.60;0.00;;;;;14.91;64.73;98643.50;5007249;28;45367;-50
2022/04/07 09:46:34;;;;;;;;;0.00;0.00;;;;;15.10;64.58;98659.31;5029889;28;45825;-48
2022/04/07 09:49:03;;;;;;;;;0.00;0.00;;;;;15.08;64.47;98672.59;5030638;28;45787;-48
2022/04/07 09:51:28;;;;;;;;;0.00;0.00;;;;;15.05;64.72;98674.00;5030396;28;45557;-49
2022/04/07 09:53:57;;;;;;;;;0.00;0.00;;;;;14.98;64.01;98682.63;5028250;28;45367;-49
2022/04/07 09:56:27;;;;;;;;;0.00;0.00;;;;;14.97;64.39;98685.69;5041856;28;45699;-49
2022/04/07 09:58:53;;;;;;;;;0.00;0.00;;;;;15.07;64.31;98687.53;5048909;28;45897;-53
2022/04/07 10:01:19;;;;;;;;;0.00;0.00;;;;;15.16;64.41;98703.16;5049770;28;45751;-56
2022/04/07 10:03:44;;;;;;;;;0.00;0.00;;;;;15.10;63.65;98689.72;5032721;28;45532;-50
2022/04/07 10:06:11;;;;;;;;;0.00;0.00;;;;;15.13;64.59;98672.53;5030209;28;46510;-49
2022/04/07 10:08:36;;;;;;;;;0.00;0.00;;;;;15.09;64.14;98674.25;5009818;28;45433;-49
2022/04/07 10:11:02;;;;;;;;;0.00;0.00;;;;;15.11;64.22;98685.84;4976336;28;45403;-49
2022/04/07 10:13:27;;;;;;;;;0.00;0.00;;;;;15.05;64.96;98685.03;4966232;28;45789;-52
2022/04/07 10:15:53;;;;;;;;;0.25;0.25;;;;;15.14;65.87;98701.81;4975771;28;45608;-49
2022/04/07 10:18:24;;;;;;;;;1.00;1.00;;;;;15.01;67.09;98717.16;5026752;28;45426;-49
2022/04/07 10:20:53;;;;;;;;;0.60;0.60;;;;;14.72;70.62;98742.75;5030291;28;45442;-55
2022/04/07 10:23:46;;;;;;;;;1.00;1.00;;;;;14.55;70.92;98781.81;5011854;28;45474;-51
2022/04/07 10:26:12;;;;;;;;;0.20;0.20;;;;;14.46;71.82;98779.66;5029954;28;45844;-47
2022/04/07 10:28:37;;;;;;;;;0.00;0.00;;;;;14.45;71.10;98783.53;5018905;28;45865;-50
2022/04/07 10:31:15;;;;;;;;;0.00;0.00;;;;;14.30;71.56;98778.13;5029716;28;45471;-49
2022/04/07 10:33:45;;;;;;;;;0.20;0.00;;;;;14.36;70.66;98788.03;5030070;28;45856;-48
2022/04/07 10:36:18;;;;;;;;;0.00;0.00;;;;;14.35;69.26;98781.69;5012714;28;46222;-50
2022/04/07 10:38:47;;;;;;;;;0.40;0.40;;;;;14.42;69.99;98786.06;5030102;28;45483;-51
2022/04/07 10:41:35;;;;;;;;;1.00;1.00;;;;;14.57;68.76;98797.00;5029273;28;45793;-54
2022/04/07 10:44:14;;;;;;;;;2.00;0.00;;;;;14.66;68.46;98780.63;5031070;28;45846;-51
2022/04/07 10:46:39;;;;;;;;;0.00;0.00;;;;;14.84;66.87;98811.47;5040574;28;46121;-55
2022/04/07 10:49:09;;;;;;;;;0.00;0.00;;;;;14.79;64.54;98783.91;5048801;28;45454;-51
2022/04/07 10:51:51;;;;;;;;;0.00;0.00;;;;;15.11;65.34;98819.25;5033853;28;45822;-50
2022/04/07 10:54:16;;;;;;;;;0.00;0.00;;;;;15.24;64.95;98798.44;5030604;28;45640;-48
2022/04/07 10:56:46;;;;;;;;;0.00;0.00;;;;;15.37;63.59;98821.78;5033297;28;45540;-49
2022/04/07 10:59:18;;;;;;;;;0.00;0.00;;;;;15.52;62.67;98820.00;5050730;28;45480;-48
2022/04/07 11:01:47;;;;;;;;;0.00;0.00;;;;;15.42;61.73;98785.00;5053391;28;45388;-49
2022/04/07 11:07:02;;;;;;;;;0.40;0.00;;;;;15.88;60.78;98810.47;5052019;28;45573;-53
2022/04/07 11:09:49;;;;;;;;;0.00;0.00;;;;;15.78;59.29;98837.16;5048652;28;46039;-49
2022/04/07 11:12:31;;;;;;;;;0.00;0.00;;;;;15.81;59.67;98839.31;5023884;28;45751;-52
2022/04/07 11:15:02;;;;;;;;;0.00;0.00;;;;;15.78;59.17;98828.84;5033093;28;45418;-52
2022/04/07 11:17:46;;;;;;;;;0.00;0.00;;;;;15.65;59.04;98822.09;5040469;28;45719;-50
2022/04/07 11:20:18;;;;;;;;;0.00;0.00;;;;;15.68;58.39;98851.06;5034986;28;45481;-54
2022/04/07 11:23:07;;;;;;;;;0.00;0.00;;;;;15.76;58.29;98855.97;5052925;28;45406;-50
2022/04/07 11:25:42;;;;;;;;;0.00;0.00;;;;;15.76;58.02;98842.16;5051828;28;45508;-50
2022/04/07 11:28:14;;;;;;;;;1.00;0.00;;;;;15.86;57.61;98877.19;5032682;28;46557;-49
2022/04/07 11:31:04;;;;;;;;;1.00;1.00;;;;;15.89;56.71;98873.00;5044245;28;45531;-50
2022/04/07 11:33:38;;;;;;;;;0.00;0.00;;;;;15.65;56.67;98840.59;5052778;28;45430;-48
2022/04/07 11:36:04;;;;;;;;;0.00;0.00;;;;;15.70;57.01;98859.91;5011569;28;45899;-51